createdAt,value
2019-04-05T00:01:12.407Z,12.97
2019-04-05T00:06:17.622Z,11.13
2019-04-05T00:11:23.099Z,10.73
2019-04-05T00:16:28.535Z,12.17
2019-04-05T00:21:33.816Z,12.60
2019-04-05T00:26:39.020Z,13.73
2019-04-05T00:31:43.983Z,12.60
2019-04-05T00:36:49.141Z,9.47
2019-04-05T00:41:54.072Z,11.47
2019-04-05T00:46:59.375Z,12.13
2019-04-05T00:52:04.278Z,12.00
2019-04-05T00:57:09.630Z,13.07
2019-04-05T01:02:14.803Z,12.23
2019-04-05T01:07:20.008Z,13.40
2019-04-05T01:12:26.273Z,11.13
2019-04-05T01:17:31.331Z,10.83
2019-04-05T01:22:36.422Z,11.17
2019-04-05T01:27:41.953Z,11.53
2019-04-05T01:32:47.376Z,10.40
2019-04-05T01:37:53.027Z,11.67
2019-04-05T01:42:58.718Z,10.97
2019-04-05T01:48:03.970Z,10.87
2019-04-05T01:53:09.406Z,11.27
2019-04-05T01:58:14.598Z,12.37
2019-04-05T02:03:19.833Z,11.57
2019-04-05T02:08:25.417Z,11.57
2019-04-05T02:13:31.268Z,11.10
2019-04-05T02:18:36.442Z,11.50
2019-04-05T02:23:41.610Z,10.03
2019-04-05T02:28:47.018Z,11.63
2019-04-05T02:33:52.453Z,14.53
2019-04-05T02:38:57.350Z,11.13
2019-04-05T02:44:03.362Z,11.40
2019-04-05T02:49:10.028Z,11.40
2019-04-05T02:54:15.727Z,16.40
2019-04-05T02:59:21.721Z,12.67
2019-04-05T03:04:26.905Z,13.83
2019-04-05T03:09:32.520Z,10.37
2019-04-05T03:14:39.111Z,11.70
2019-04-05T03:19:46.466Z,13.23
2019-04-05T03:24:51.654Z,10.27
2019-04-05T03:29:57.822Z,12.50
2019-04-05T03:35:02.976Z,11.73
2019-04-05T03:40:08.412Z,10.67
2019-04-05T03:45:13.900Z,10.30
2019-04-05T03:50:19.281Z,11.43
2019-04-05T03:55:24.225Z,13.53
2019-04-05T04:00:29.454Z,10.43
2019-04-05T04:05:34.718Z,10.00
2019-04-05T04:10:39.849Z,10.50
2019-04-05T04:15:45.380Z,11.67
2019-04-05T04:20:52.962Z,9.23
2019-04-05T04:25:59.473Z,9.33
2019-04-05T04:31:04.838Z,10.80
2019-04-05T04:36:13.067Z,10.70
2019-04-05T04:41:18.006Z,10.13
2019-04-05T04:46:23.555Z,9.63
2019-04-05T04:51:29.279Z,9.37
2019-04-05T04:56:34.904Z,10.17
2019-04-05T05:01:39.936Z,8.33
2019-04-05T05:06:45.078Z,7.40
2019-04-05T05:11:50.002Z,7.53
2019-04-05T05:16:55.014Z,8.33
2019-04-05T05:22:00.194Z,7.13
2019-04-05T05:27:05.960Z,8.23
2019-04-05T05:32:11.162Z,8.50
2019-04-05T05:37:17.237Z,6.97
2019-04-05T05:42:22.808Z,8.20
2019-04-05T05:47:28.127Z,8.23
2019-04-05T05:52:34.243Z,8.10
2019-04-05T05:57:39.803Z,5.77
2019-04-05T06:02:48.161Z,7.47
2019-04-05T06:07:51.961Z,6.43
2019-04-05T06:12:58.708Z,7.17
2019-04-05T06:18:05.176Z,5.73
2019-04-05T06:23:10.779Z,7.13
2019-04-05T06:28:16.386Z,5.87
2019-04-05T06:33:31.447Z,6.07
2019-04-05T06:38:30.425Z,8.80
2019-04-05T06:43:35.344Z,7.13
2019-04-05T06:48:40.751Z,6.80
2019-04-05T06:53:45.993Z,7.50
2019-04-05T06:58:51.346Z,8.50
2019-04-05T07:03:56.443Z,14.27
2019-04-05T07:09:01.996Z,17.57
2019-04-05T07:14:07.320Z,17.90
2019-04-05T07:19:12.509Z,18.17
2019-04-05T07:24:17.730Z,18.07
2019-04-05T07:29:23.531Z,21.07
2019-04-05T07:34:29.050Z,19.33
2019-04-05T07:39:34.297Z,24.63
2019-04-05T07:44:39.525Z,22.10
2019-04-05T07:49:44.802Z,19.67
2019-04-05T07:54:50.033Z,19.07
2019-04-05T07:59:55.033Z,18.97
2019-04-05T08:05:00.452Z,20.57
2019-04-05T08:10:07.072Z,22.40
2019-04-05T08:15:12.330Z,22.00
2019-04-05T08:20:17.602Z,21.53
2019-04-05T08:25:22.869Z,23.53
2019-04-05T08:30:28.202Z,22.63
2019-04-05T08:35:33.522Z,21.17
2019-04-05T09:06:27.701Z,18.00
2019-04-05T09:11:34.262Z,17.10
2019-04-05T09:16:39.607Z,19.27
2019-04-05T09:21:45.119Z,17.20
2019-04-05T09:26:54.078Z,14.27
2019-04-05T09:31:58.931Z,13.70
2019-04-05T09:37:04.706Z,13.37
2019-04-05T09:42:13.131Z,17.93
2019-04-05T09:47:18.816Z,18.60
2019-04-05T09:52:24.405Z,20.87
2019-04-05T09:57:30.506Z,23.10
2019-04-05T10:02:36.454Z,20.30
2019-04-05T10:07:54.136Z,23.73
2019-04-05T10:12:49.387Z,24.23
2019-04-05T10:17:54.758Z,20.27
2019-04-05T10:23:00.311Z,18.90
2019-04-05T10:28:05.564Z,18.93
2019-04-05T10:33:11.030Z,19.63
2019-04-05T10:38:17.010Z,19.63
2019-04-05T10:43:22.303Z,16.63
2019-04-05T10:48:27.895Z,14.53
2019-04-05T10:53:33.489Z,16.20
2019-04-05T10:58:38.633Z,19.13
2019-04-05T11:03:44.185Z,20.10
2019-04-05T11:08:49.058Z,18.50
2019-04-05T11:13:54.517Z,13.07
2019-04-05T11:19:01.898Z,14.37
2019-04-05T11:29:12.719Z,12.50
2019-04-05T11:34:36.093Z,13.20
2019-04-05T11:39:41.287Z,14.93
2019-04-05T11:44:49.377Z,11.77
2019-04-05T11:49:56.044Z,9.47
2019-04-05T11:55:01.150Z,10.77
2019-04-05T12:00:12.484Z,11.63
2019-04-05T12:05:18.184Z,12.13
2019-04-05T12:10:23.643Z,10.37
2019-04-05T12:15:28.845Z,11.97
2019-04-05T12:20:47.387Z,13.93
2019-04-05T12:25:44.074Z,11.77
2019-04-05T12:30:50.472Z,12.97
2019-04-05T12:35:56.608Z,15.27
2019-04-05T12:41:03.693Z,14.33
2019-04-05T12:46:08.998Z,17.03
2019-04-05T12:51:15.591Z,13.47
2019-04-05T12:56:20.551Z,14.97
2019-04-05T13:01:25.557Z,15.70
2019-04-05T13:06:31.085Z,12.43
2019-04-05T13:11:35.962Z,12.20
2019-04-05T13:16:40.882Z,15.00
2019-04-05T13:21:46.037Z,13.33
2019-04-05T13:26:50.909Z,14.17
2019-04-05T13:31:56.173Z,13.57
2019-04-05T13:37:01.970Z,12.30
2019-04-05T13:42:07.241Z,13.10
2019-04-05T13:47:12.398Z,11.67
2019-04-05T13:52:17.750Z,13.63
2019-04-05T13:57:22.795Z,11.47
2019-04-05T14:02:28.065Z,13.57
2019-04-05T14:07:34.323Z,12.93
2019-04-05T14:12:40.312Z,15.50
2019-04-05T14:17:49.110Z,12.33
2019-04-05T14:22:53.646Z,12.27
2019-04-05T14:27:58.850Z,16.53
2019-04-05T14:33:04.337Z,12.87
2019-04-05T14:38:11.716Z,13.10
2019-04-05T14:43:17.133Z,13.47
2019-04-05T14:48:22.581Z,15.20
2019-04-05T14:53:31.791Z,14.00
2019-04-05T14:58:34.916Z,15.67
2019-04-05T15:03:39.917Z,11.77
2019-04-05T15:08:47.742Z,12.80
2019-04-05T15:13:53.882Z,10.63
2019-04-05T15:18:59.423Z,11.10
2019-04-05T15:24:04.477Z,10.57
2019-04-05T15:29:09.681Z,10.83
2019-04-05T15:34:15.106Z,8.13
2019-04-05T15:39:20.485Z,10.33
2019-04-05T15:44:25.820Z,7.60
2019-04-05T15:49:31.413Z,8.87
2019-04-05T15:54:36.297Z,10.97
2019-04-05T15:59:41.455Z,10.50
2019-04-05T16:04:46.736Z,11.73
2019-04-05T16:09:52.314Z,10.57
2019-04-05T16:14:57.514Z,10.70
2019-04-05T16:20:02.745Z,10.00
2019-04-05T16:25:09.443Z,12.13
2019-04-05T16:30:14.633Z,11.43
2019-04-05T16:35:19.577Z,12.30
2019-04-05T16:40:24.990Z,11.30
2019-04-05T16:45:30.134Z,12.13
2019-04-05T16:50:35.062Z,11.17
2019-04-05T16:55:39.952Z,12.60
2019-04-05T17:00:45.361Z,9.17
2019-04-05T17:05:50.618Z,12.27
2019-04-05T17:10:55.469Z,14.47
2019-04-05T17:16:00.345Z,12.13
2019-04-05T17:21:05.619Z,10.17
2019-04-05T17:26:10.712Z,12.03
2019-04-05T17:31:16.429Z,14.27
2019-04-05T17:36:21.316Z,13.23
2019-04-05T17:41:26.898Z,11.47
2019-04-05T17:46:32.093Z,14.57
2019-04-05T17:51:37.005Z,11.63
2019-04-05T17:56:42.141Z,12.97
2019-04-05T18:01:47.419Z,13.20
2019-04-05T18:06:53.046Z,13.30
2019-04-05T18:11:57.980Z,12.23
2019-04-05T18:17:03.110Z,13.47
2019-04-05T18:22:08.300Z,14.10
2019-04-05T18:27:13.493Z,14.13
2019-04-05T18:32:23.811Z,17.57
2019-04-05T18:37:29.185Z,13.87
2019-04-05T18:42:34.483Z,13.77
2019-04-05T18:47:39.747Z,14.20
2019-04-05T18:52:44.756Z,15.67
2019-04-05T18:57:49.979Z,17.77
2019-04-05T19:02:55.530Z,19.37
2019-04-05T19:08:01.296Z,21.60
2019-04-05T19:13:06.858Z,17.47
2019-04-05T19:18:12.133Z,20.60
2019-04-05T19:23:17.929Z,18.20
2019-04-05T19:28:23.248Z,23.07
2019-04-05T19:48:49.876Z,21.10
2019-04-05T19:54:01.102Z,21.00
2019-04-05T19:59:01.879Z,20.83
2019-04-05T20:04:07.148Z,23.20
2019-04-05T20:09:12.680Z,20.73
2019-04-05T20:14:17.995Z,20.93
2019-04-05T20:19:23.449Z,27.00
2019-04-05T20:24:28.538Z,24.87
2019-04-05T20:29:33.648Z,24.00
2019-04-05T20:34:39.297Z,23.03
2019-04-05T20:39:44.607Z,24.07
2019-04-05T20:44:49.909Z,27.13
2019-04-05T20:49:55.303Z,28.83
2019-04-05T20:55:00.991Z,27.97
2019-04-05T21:00:07.512Z,25.40
2019-04-05T21:05:12.503Z,26.97
2019-04-05T21:10:17.717Z,25.30
2019-04-05T21:15:23.016Z,25.93
2019-04-05T21:20:28.619Z,25.83
2019-04-05T21:25:33.672Z,25.83
2019-04-05T21:30:38.551Z,24.47
2019-04-05T21:35:45.785Z,24.97
2019-04-05T21:40:50.073Z,21.27
2019-04-05T21:45:55.553Z,24.33
2019-04-05T21:51:00.624Z,19.40
2019-04-05T21:56:05.853Z,25.47
2019-04-05T22:01:10.903Z,25.83
2019-04-05T22:06:15.792Z,21.30
2019-04-05T22:11:20.983Z,25.83
2019-04-05T22:16:26.137Z,25.47
2019-04-05T22:21:31.277Z,24.53
2019-04-05T22:26:36.398Z,22.93
2019-04-05T22:31:41.305Z,24.63
2019-04-05T22:36:46.838Z,28.50
2019-04-05T22:41:51.816Z,25.23
2019-04-05T22:46:57.016Z,28.20
2019-04-05T22:52:02.229Z,23.07
2019-04-05T22:57:07.579Z,21.47
2019-04-05T23:02:12.750Z,25.13
2019-04-05T23:07:17.570Z,25.53
2019-04-05T23:12:22.991Z,19.03
2019-04-05T23:17:28.028Z,16.40
2019-04-05T23:22:33.074Z,21.93
2019-04-05T23:27:37.974Z,19.50
2019-04-05T23:32:43.577Z,18.87
2019-04-05T23:37:48.991Z,18.57
2019-04-05T23:42:53.813Z,25.73
2019-04-05T23:48:01.652Z,18.77
2019-04-05T23:53:06.737Z,19.63
2019-04-05T23:58:11.921Z,18.93
